Archival Weather

Bob Hope

Burbank, California (KBUR)

Report from: Monday, January 29, 2024 10:53 PM PST
Current time: Friday, June 14, 2024 6:16 AM PDT

Current weather – Weather history – Daily summaries
Weather forecast

Temperature13.9°C (57.0°F)
Dew point4.4°C (39.9°F)
Winds Calm
Visibility10 mi. (16.1 km)
Clouds Sky clear
Altimeter30.09 in.Hg (1019 mB)
Relative humidity53 %
Density altitude-164 ft. (-50 m)
Sea-level pressure101.8 kPa (1018 mB, 30.06 in.Hg)
Remarks Automated weather observing station with precipitation discriminator
Flight conditions Visual Meteorological Conditions
Raw dataKBUR 300653Z 00000KT 10SM CLR 14/04 A3009 RMK AO2 SLP179 T01390044
An error has occurred. This application may no longer respond until reloaded. Reload 🗙